sensor_id;sensor_type;location;lat;lon;timestamp;temperature;humidity
12833;DHT22;6483;51.310;4.462;2023-03-21T00:02:17;9.90;99.90
12833;DHT22;6483;51.310;4.462;2023-03-21T00:04:43;9.80;99.90
12833;DHT22;6483;51.310;4.462;2023-03-21T00:07:11;9.90;99.90
12833;DHT22;6483;51.310;4.462;2023-03-21T00:09:40;9.80;99.90
12833;DHT22;6483;51.310;4.462;2023-03-21T00:12:05;9.90;99.90
12833;DHT22;6483;51.310;4.462;2023-03-21T00:14:35;9.90;99.90
12833;DHT22;6483;51.310;4.462;2023-03-21T00:17:03;9.90;99.90
12833;DHT22;6483;51.310;4.462;2023-03-21T00:19:31;9.90;99.90
12833;DHT22;6483;51.310;4.462;2023-03-21T00:22:00;10.00;99.90
12833;DHT22;6483;51.310;4.462;2023-03-21T00:24:26;10.00;99.90
12833;DHT22;6483;51.310;4.462;2023-03-21T00:26:52;9.90;99.90
12833;DHT22;6483;51.310;4.462;2023-03-21T00:29:21;10.00;99.90
12833;DHT22;6483;51.310;4.462;2023-03-21T00:31:46;10.00;99.90
12833;DHT22;6483;51.310;4.462;2023-03-21T00:34:15;9.90;99.90
12833;DHT22;6483;51.310;4.462;2023-03-21T00:36:41;10.00;99.90
12833;DHT22;6483;51.310;4.462;2023-03-21T00:39:07;10.00;99.90
12833;DHT22;6483;51.310;4.462;2023-03-21T00:41:33;10.00;99.90
12833;DHT22;6483;51.310;4.462;2023-03-21T00:44:01;10.00;99.90
12833;DHT22;6483;51.310;4.462;2023-03-21T00:46:28;10.00;99.90
12833;DHT22;6483;51.310;4.462;2023-03-21T00:48:54;10.00;99.90
12833;DHT22;6483;51.310;4.462;2023-03-21T00:51:22;10.00;99.90
12833;DHT22;6483;51.310;4.462;2023-03-21T00:53:55;10.00;99.90
12833;DHT22;6483;51.310;4.462;2023-03-21T00:56:27;10.00;99.90
12833;DHT22;6483;51.310;4.462;2023-03-21T00:58:54;10.00;99.90
12833;DHT22;6483;51.310;4.462;2023-03-21T01:01:19;10.00;99.90
12833;DHT22;6483;51.310;4.462;2023-03-21T01:03:50;10.00;99.90
12833;DHT22;6483;51.310;4.462;2023-03-21T01:06:27;9.90;99.90
12833;DHT22;6483;51.310;4.462;2023-03-21T01:08:57;9.90;99.90
12833;DHT22;6483;51.310;4.462;2023-03-21T01:11:26;9.90;99.90
12833;DHT22;6483;51.310;4.462;2023-03-21T01:13:56;9.90;99.90
12833;DHT22;6483;51.310;4.462;2023-03-21T01:16:22;9.90;99.90
12833;DHT22;6483;51.310;4.462;2023-03-21T01:18:48;9.90;99.90
12833;DHT22;6483;51.310;4.462;2023-03-21T01:21:14;9.90;99.90
12833;DHT22;6483;51.310;4.462;2023-03-21T01:23:42;9.90;99.90
12833;DHT22;6483;51.310;4.462;2023-03-21T01:26:11;10.00;99.90
12833;DHT22;6483;51.310;4.462;2023-03-21T01:28:39;10.00;99.90
12833;DHT22;6483;51.310;4.462;2023-03-21T01:31:06;10.00;99.90
12833;DHT22;6483;51.310;4.462;2023-03-21T01:33:34;9.90;99.90
12833;DHT22;6483;51.310;4.462;2023-03-21T01:36:00;9.90;99.90
12833;DHT22;6483;51.310;4.462;2023-03-21T01:38:26;9.90;99.90
12833;DHT22;6483;51.310;4.462;2023-03-21T01:40:52;9.90;99.90
12833;DHT22;6483;51.310;4.462;2023-03-21T01:43:27;9.90;99.90
12833;DHT22;6483;51.310;4.462;2023-03-21T01:48:40;10.00;99.90
12833;DHT22;6483;51.310;4.462;2023-03-21T01:51:08;10.00;99.90
12833;DHT22;6483;51.310;4.462;2023-03-21T01:53:37;10.00;99.90
12833;DHT22;6483;51.310;4.462;2023-03-21T01:56:10;10.10;99.90
12833;DHT22;6483;51.310;4.462;2023-03-21T01:58:41;10.10;99.90
12833;DHT22;6483;51.310;4.462;2023-03-21T02:01:11;10.00;99.90
12833;DHT22;6483;51.310;4.462;2023-03-21T02:03:39;10.10;99.90
12833;DHT22;6483;51.310;4.462;2023-03-21T02:06:24;10.10;99.90
12833;DHT22;6483;51.310;4.462;2023-03-21T02:08:55;10.10;99.90
12833;DHT22;6483;51.310;4.462;2023-03-21T02:11:21;10.10;99.90
12833;DHT22;6483;51.310;4.462;2023-03-21T02:13:50;10.10;99.90
12833;DHT22;6483;51.310;4.462;2023-03-21T02:16:32;10.10;99.90
12833;DHT22;6483;51.310;4.462;2023-03-21T02:37:38;10.00;99.90
12833;DHT22;6483;51.310;4.462;2023-03-21T02:39:37;10.00;99.90
12833;DHT22;6483;51.310;4.462;2023-03-21T02:49:56;10.00;99.90
12833;DHT22;6483;51.310;4.462;2023-03-21T02:52:29;10.10;99.90
12833;DHT22;6483;51.310;4.462;2023-03-21T02:54:57;10.10;99.90
12833;DHT22;6483;51.310;4.462;2023-03-21T02:57:24;10.10;99.90
12833;DHT22;6483;51.310;4.462;2023-03-21T02:59:50;10.10;99.90
12833;DHT22;6483;51.310;4.462;2023-03-21T03:02:21;10.10;99.90
12833;DHT22;6483;51.310;4.462;2023-03-21T03:04:49;10.10;99.90
12833;DHT22;6483;51.310;4.462;2023-03-21T03:18:51;10.00;99.90
12833;DHT22;6483;51.310;4.462;2023-03-21T03:24:02;9.90;99.90
12833;DHT22;6483;51.310;4.462;2023-03-21T03:26:48;10.00;99.90
12833;DHT22;6483;51.310;4.462;2023-03-21T03:29:18;10.00;99.90
12833;DHT22;6483;51.310;4.462;2023-03-21T03:31:59;9.90;99.90
12833;DHT22;6483;51.310;4.462;2023-03-21T03:34:31;10.00;99.90
12833;DHT22;6483;51.310;4.462;2023-03-21T03:37:02;10.00;99.90
12833;DHT22;6483;51.310;4.462;2023-03-21T03:40:01;10.00;99.90
12833;DHT22;6483;51.310;4.462;2023-03-21T03:42:51;9.90;99.90
12833;DHT22;6483;51.310;4.462;2023-03-21T03:45:19;9.90;99.90
12833;DHT22;6483;51.310;4.462;2023-03-21T03:48:14;10.00;99.90
12833;DHT22;6483;51.310;4.462;2023-03-21T03:50:53;9.90;99.90
12833;DHT22;6483;51.310;4.462;2023-03-21T03:53:41;10.00;99.90
12833;DHT22;6483;51.310;4.462;2023-03-21T03:56:09;10.00;99.90
12833;DHT22;6483;51.310;4.462;2023-03-21T03:58:36;10.00;99.90
12833;DHT22;6483;51.310;4.462;2023-03-21T04:01:04;10.00;99.90
12833;DHT22;6483;51.310;4.462;2023-03-21T04:03:32;10.00;99.90
12833;DHT22;6483;51.310;4.462;2023-03-21T04:06:00;10.00;99.90
12833;DHT22;6483;51.310;4.462;2023-03-21T04:08:44;10.00;99.90
12833;DHT22;6483;51.310;4.462;2023-03-21T04:11:16;10.00;99.90
12833;DHT22;6483;51.310;4.462;2023-03-21T04:13:42;10.00;99.90
12833;DHT22;6483;51.310;4.462;2023-03-21T04:16:08;10.10;99.90
12833;DHT22;6483;51.310;4.462;2023-03-21T04:18:39;10.10;99.90
12833;DHT22;6483;51.310;4.462;2023-03-21T04:21:14;10.10;99.90
12833;DHT22;6483;51.310;4.462;2023-03-21T04:23:42;10.10;99.90
12833;DHT22;6483;51.310;4.462;2023-03-21T04:26:08;10.10;99.90
12833;DHT22;6483;51.310;4.462;2023-03-21T04:28:37;10.10;99.90
12833;DHT22;6483;51.310;4.462;2023-03-21T04:31:10;10.20;99.90
12833;DHT22;6483;51.310;4.462;2023-03-21T04:33:37;10.20;99.90
12833;DHT22;6483;51.310;4.462;2023-03-21T04:36:07;10.20;99.90
12833;DHT22;6483;51.310;4.462;2023-03-21T04:38:35;10.20;99.90
12833;DHT22;6483;51.310;4.462;2023-03-21T04:41:01;10.20;99.90
12833;DHT22;6483;51.310;4.462;2023-03-21T04:43:30;10.20;99.90
12833;DHT22;6483;51.310;4.462;2023-03-21T04:45:57;10.20;99.90
12833;DHT22;6483;51.310;4.462;2023-03-21T04:48:22;10.20;99.90
12833;DHT22;6483;51.310;4.462;2023-03-21T04:50:49;10.20;99.90
12833;DHT22;6483;51.310;4.462;2023-03-21T04:53:16;10.30;99.90
12833;DHT22;6483;51.310;4.462;2023-03-21T04:55:43;10.30;99.90
12833;DHT22;6483;51.310;4.462;2023-03-21T04:58:12;10.30;99.90
12833;DHT22;6483;51.310;4.462;2023-03-21T05:00:37;10.30;99.90
12833;DHT22;6483;51.310;4.462;2023-03-21T05:03:10;10.30;99.90
12833;DHT22;6483;51.310;4.462;2023-03-21T05:05:44;10.30;99.90
12833;DHT22;6483;51.310;4.462;2023-03-21T05:08:13;7.80;99.90
12833;DHT22;6483;51.310;4.462;2023-03-21T05:10:42;10.40;99.90
12833;DHT22;6483;51.310;4.462;2023-03-21T05:13:08;10.40;99.90
12833;DHT22;6483;51.310;4.462;2023-03-21T05:15:34;10.40;99.90
12833;DHT22;6483;51.310;4.462;2023-03-21T05:17:59;10.40;99.90
12833;DHT22;6483;51.310;4.462;2023-03-21T05:20:36;10.40;99.90
12833;DHT22;6483;51.310;4.462;2023-03-21T05:23:01;10.50;99.90
12833;DHT22;6483;51.310;4.462;2023-03-21T05:25:27;10.50;99.90
12833;DHT22;6483;51.310;4.462;2023-03-21T05:28:04;10.50;99.90
12833;DHT22;6483;51.310;4.462;2023-03-21T05:30:30;10.50;99.90
12833;DHT22;6483;51.310;4.462;2023-03-21T05:32:56;10.50;99.90
12833;DHT22;6483;51.310;4.462;2023-03-21T05:35:22;10.50;99.90
12833;DHT22;6483;51.310;4.462;2023-03-21T05:37:47;10.50;99.90
12833;DHT22;6483;51.310;4.462;2023-03-21T05:40:16;10.50;99.90
12833;DHT22;6483;51.310;4.462;2023-03-21T05:42:42;10.50;99.90
12833;DHT22;6483;51.310;4.462;2023-03-21T05:45:10;10.40;99.90
12833;DHT22;6483;51.310;4.462;2023-03-21T05:47:36;10.30;99.90
12833;DHT22;6483;51.310;4.462;2023-03-21T05:50:02;10.30;99.90
12833;DHT22;6483;51.310;4.462;2023-03-21T05:52:28;10.30;99.90
12833;DHT22;6483;51.310;4.462;2023-03-21T05:54:54;10.10;99.90
12833;DHT22;6483;51.310;4.462;2023-03-21T05:57:20;10.10;99.90
12833;DHT22;6483;51.310;4.462;2023-03-21T05:59:47;10.00;99.90
12833;DHT22;6483;51.310;4.462;2023-03-21T06:02:12;10.10;99.90
12833;DHT22;6483;51.310;4.462;2023-03-21T06:04:39;10.10;99.90
12833;DHT22;6483;51.310;4.462;2023-03-21T06:07:04;10.10;99.90
12833;DHT22;6483;51.310;4.462;2023-03-21T06:09:30;10.20;99.90
12833;DHT22;6483;51.310;4.462;2023-03-21T06:11:56;10.20;99.90
12833;DHT22;6483;51.310;4.462;2023-03-21T06:14:26;10.30;99.90
12833;DHT22;6483;51.310;4.462;2023-03-21T06:16:52;10.20;99.90
12833;DHT22;6483;51.310;4.462;2023-03-21T06:19:19;10.20;99.90
12833;DHT22;6483;51.310;4.462;2023-03-21T06:21:46;10.00;99.90
12833;DHT22;6483;51.310;4.462;2023-03-21T06:24:13;10.00;99.90
12833;DHT22;6483;51.310;4.462;2023-03-21T06:27:02;10.10;99.90
12833;DHT22;6483;51.310;4.462;2023-03-21T06:29:28;10.00;99.90
12833;DHT22;6483;51.310;4.462;2023-03-21T06:31:58;9.90;99.90
12833;DHT22;6483;51.310;4.462;2023-03-21T06:34:26;9.90;99.90
12833;DHT22;6483;51.310;4.462;2023-03-21T06:36:52;9.90;99.90
12833;DHT22;6483;51.310;4.462;2023-03-21T06:39:20;9.90;99.90
12833;DHT22;6483;51.310;4.462;2023-03-21T06:41:49;9.90;99.90
12833;DHT22;6483;51.310;4.462;2023-03-21T06:44:15;9.90;99.90
12833;DHT22;6483;51.310;4.462;2023-03-21T06:46:40;9.90;99.90
12833;DHT22;6483;51.310;4.462;2023-03-21T06:49:06;9.90;99.90
12833;DHT22;6483;51.310;4.462;2023-03-21T06:51:32;10.00;99.90
12833;DHT22;6483;51.310;4.462;2023-03-21T06:54:00;10.00;99.90
12833;DHT22;6483;51.310;4.462;2023-03-21T06:56:29;10.00;99.90
12833;DHT22;6483;51.310;4.462;2023-03-21T06:58:56;10.10;99.90
12833;DHT22;6483;51.310;4.462;2023-03-21T07:01:21;10.20;99.90
12833;DHT22;6483;51.310;4.462;2023-03-21T07:03:50;10.20;99.90
12833;DHT22;6483;51.310;4.462;2023-03-21T07:06:18;10.30;99.90
12833;DHT22;6483;51.310;4.462;2023-03-21T07:08:46;10.30;99.90
12833;DHT22;6483;51.310;4.462;2023-03-21T07:11:12;10.40;99.90
12833;DHT22;6483;51.310;4.462;2023-03-21T07:13:39;10.30;99.90
12833;DHT22;6483;51.310;4.462;2023-03-21T07:16:07;10.40;99.90
12833;DHT22;6483;51.310;4.462;2023-03-21T07:18:33;10.40;99.90
12833;DHT22;6483;51.310;4.462;2023-03-21T07:21:02;10.30;99.90
12833;DHT22;6483;51.310;4.462;2023-03-21T07:23:27;10.30;99.90
12833;DHT22;6483;51.310;4.462;2023-03-21T07:25:54;10.30;99.90
12833;DHT22;6483;51.310;4.462;2023-03-21T07:28:22;10.30;99.90
12833;DHT22;6483;51.310;4.462;2023-03-21T07:31:07;10.20;99.90
12833;DHT22;6483;51.310;4.462;2023-03-21T07:33:34;10.20;99.90
12833;DHT22;6483;51.310;4.462;2023-03-21T07:36:09;10.20;99.90
12833;DHT22;6483;51.310;4.462;2023-03-21T07:38:37;10.30;99.90
12833;DHT22;6483;51.310;4.462;2023-03-21T07:41:04;10.30;99.90
12833;DHT22;6483;51.310;4.462;2023-03-21T07:43:29;10.40;99.90
12833;DHT22;6483;51.310;4.462;2023-03-21T07:45:56;10.50;99.90
12833;DHT22;6483;51.310;4.462;2023-03-21T07:48:27;10.50;99.90
12833;DHT22;6483;51.310;4.462;2023-03-21T07:50:56;10.60;99.90
12833;DHT22;6483;51.310;4.462;2023-03-21T07:53:22;10.60;99.90
12833;DHT22;6483;51.310;4.462;2023-03-21T07:55:52;10.60;99.90
12833;DHT22;6483;51.310;4.462;2023-03-21T07:58:24;10.60;99.90
12833;DHT22;6483;51.310;4.462;2023-03-21T08:00:51;10.60;99.90
12833;DHT22;6483;51.310;4.462;2023-03-21T08:03:17;10.60;99.90
12833;DHT22;6483;51.310;4.462;2023-03-21T08:05:44;10.60;99.90
12833;DHT22;6483;51.310;4.462;2023-03-21T08:08:10;10.60;99.90
12833;DHT22;6483;51.310;4.462;2023-03-21T08:10:37;10.70;99.90
12833;DHT22;6483;51.310;4.462;2023-03-21T08:13:02;10.70;99.90
12833;DHT22;6483;51.310;4.462;2023-03-21T08:15:31;10.80;99.90
12833;DHT22;6483;51.310;4.462;2023-03-21T08:17:59;10.90;99.90
12833;DHT22;6483;51.310;4.462;2023-03-21T08:20:25;11.00;99.90
12833;DHT22;6483;51.310;4.462;2023-03-21T08:22:53;11.10;99.90
12833;DHT22;6483;51.310;4.462;2023-03-21T08:25:23;11.10;99.90
12833;DHT22;6483;51.310;4.462;2023-03-21T08:27:52;11.20;99.90
12833;DHT22;6483;51.310;4.462;2023-03-21T08:30:22;11.30;99.90
12833;DHT22;6483;51.310;4.462;2023-03-21T08:32:48;11.40;99.90
12833;DHT22;6483;51.310;4.462;2023-03-21T08:35:17;11.40;99.90
12833;DHT22;6483;51.310;4.462;2023-03-21T08:37:43;11.40;99.90
12833;DHT22;6483;51.310;4.462;2023-03-21T08:40:12;11.60;99.90
12833;DHT22;6483;51.310;4.462;2023-03-21T08:42:39;11.80;99.90
12833;DHT22;6483;51.310;4.462;2023-03-21T08:45:06;11.90;99.90
12833;DHT22;6483;51.310;4.462;2023-03-21T08:47:33;12.00;99.90
12833;DHT22;6483;51.310;4.462;2023-03-21T08:49:58;12.20;99.90
12833;DHT22;6483;51.310;4.462;2023-03-21T08:52:25;12.20;99.90
12833;DHT22;6483;51.310;4.462;2023-03-21T08:54:52;12.50;99.90
12833;DHT22;6483;51.310;4.462;2023-03-21T08:57:18;12.70;99.90
12833;DHT22;6483;51.310;4.462;2023-03-21T08:59:43;12.90;99.90
12833;DHT22;6483;51.310;4.462;2023-03-21T09:02:13;13.10;99.90
12833;DHT22;6483;51.310;4.462;2023-03-21T09:04:39;13.00;99.90
12833;DHT22;6483;51.310;4.462;2023-03-21T09:07:05;13.20;99.90
12833;DHT22;6483;51.310;4.462;2023-03-21T09:09:31;13.30;99.90
12833;DHT22;6483;51.310;4.462;2023-03-21T09:11:57;13.80;99.90
12833;DHT22;6483;51.310;4.462;2023-03-21T09:14:22;14.20;99.90
12833;DHT22;6483;51.310;4.462;2023-03-21T09:16:48;14.30;99.90
12833;DHT22;6483;51.310;4.462;2023-03-21T09:19:14;14.10;99.90
12833;DHT22;6483;51.310;4.462;2023-03-21T09:21:40;14.10;99.90
12833;DHT22;6483;51.310;4.462;2023-03-21T09:24:06;13.90;99.90
12833;DHT22;6483;51.310;4.462;2023-03-21T09:26:32;13.60;99.90
12833;DHT22;6483;51.310;4.462;2023-03-21T09:28:58;13.40;99.90
12833;DHT22;6483;51.310;4.462;2023-03-21T09:31:25;13.40;99.90
12833;DHT22;6483;51.310;4.462;2023-03-21T09:33:54;13.40;99.90
12833;DHT22;6483;51.310;4.462;2023-03-21T09:36:23;13.40;99.90
12833;DHT22;6483;51.310;4.462;2023-03-21T09:38:49;13.40;99.90
12833;DHT22;6483;51.310;4.462;2023-03-21T09:44:36;13.40;99.90
12833;DHT22;6483;51.310;4.462;2023-03-21T09:47:18;13.50;99.90
12833;DHT22;6483;51.310;4.462;2023-03-21T09:49:49;13.70;99.90
12833;DHT22;6483;51.310;4.462;2023-03-21T09:52:46;13.70;99.90
12833;DHT22;6483;51.310;4.462;2023-03-21T09:55:23;13.80;99.90
12833;DHT22;6483;51.310;4.462;2023-03-21T09:58:03;13.80;99.90
12833;DHT22;6483;51.310;4.462;2023-03-21T10:00:35;13.80;99.90
12833;DHT22;6483;51.310;4.462;2023-03-21T10:03:04;13.70;99.90
12833;DHT22;6483;51.310;4.462;2023-03-21T10:05:32;13.60;99.90
12833;DHT22;6483;51.310;4.462;2023-03-21T10:08:00;13.40;99.90
12833;DHT22;6483;51.310;4.462;2023-03-21T10:10:36;13.40;99.90
12833;DHT22;6483;51.310;4.462;2023-03-21T10:13:09;13.50;99.90
12833;DHT22;6483;51.310;4.462;2023-03-21T10:15:36;13.70;99.90
12833;DHT22;6483;51.310;4.462;2023-03-21T10:18:05;13.80;99.90
12833;DHT22;6483;51.310;4.462;2023-03-21T10:20:36;13.70;99.90
12833;DHT22;6483;51.310;4.462;2023-03-21T10:23:06;14.00;99.90
12833;DHT22;6483;51.310;4.462;2023-03-21T10:25:35;14.00;99.90
12833;DHT22;6483;51.310;4.462;2023-03-21T10:28:06;13.80;99.90
12833;DHT22;6483;51.310;4.462;2023-03-21T10:33:19;13.90;99.90
12833;DHT22;6483;51.310;4.462;2023-03-21T10:35:51;13.90;99.90
12833;DHT22;6483;51.310;4.462;2023-03-21T10:38:19;14.00;99.90
12833;DHT22;6483;51.310;4.462;2023-03-21T10:40:47;14.10;99.90
12833;DHT22;6483;51.310;4.462;2023-03-21T10:43:31;14.10;99.90
12833;DHT22;6483;51.310;4.462;2023-03-21T10:46:18;14.30;99.90
12833;DHT22;6483;51.310;4.462;2023-03-21T10:48:52;13.80;99.90
12833;DHT22;6483;51.310;4.462;2023-03-21T10:51:27;13.70;99.90
12833;DHT22;6483;51.310;4.462;2023-03-21T10:53:58;13.50;99.90
12833;DHT22;6483;51.310;4.462;2023-03-21T10:56:30;13.40;99.90
12833;DHT22;6483;51.310;4.462;2023-03-21T10:58:58;13.40;99.90
12833;DHT22;6483;51.310;4.462;2023-03-21T11:01:45;13.20;99.90
12833;DHT22;6483;51.310;4.462;2023-03-21T11:04:21;13.00;99.90
12833;DHT22;6483;51.310;4.462;2023-03-21T11:07:02;13.20;99.90
12833;DHT22;6483;51.310;4.462;2023-03-21T11:09:53;13.40;99.90
12833;DHT22;6483;51.310;4.462;2023-03-21T11:14:54;13.60;99.90
12833;DHT22;6483;51.310;4.462;2023-03-21T11:17:23;13.60;99.90
12833;DHT22;6483;51.310;4.462;2023-03-21T11:20:00;13.40;99.90
12833;DHT22;6483;51.310;4.462;2023-03-21T11:22:39;13.10;99.90
12833;DHT22;6483;51.310;4.462;2023-03-21T11:25:13;13.00;99.90
12833;DHT22;6483;51.310;4.462;2023-03-21T11:27:53;13.00;99.90
12833;DHT22;6483;51.310;4.462;2023-03-21T11:30:26;13.00;99.90
12833;DHT22;6483;51.310;4.462;2023-03-21T11:32:57;13.00;99.90
12833;DHT22;6483;51.310;4.462;2023-03-21T11:35:43;13.10;99.90
12833;DHT22;6483;51.310;4.462;2023-03-21T11:38:36;13.20;99.90
12833;DHT22;6483;51.310;4.462;2023-03-21T11:41:04;13.30;99.90
12833;DHT22;6483;51.310;4.462;2023-03-21T11:43:37;13.60;99.90
12833;DHT22;6483;51.310;4.462;2023-03-21T11:48:37;14.20;99.90
12833;DHT22;6483;51.310;4.462;2023-03-21T11:51:25;15.20;99.90
12833;DHT22;6483;51.310;4.462;2023-03-21T11:54:04;17.50;67.10
12833;DHT22;6483;51.310;4.462;2023-03-21T11:56:34;16.80;26.60
12833;DHT22;6483;51.310;4.462;2023-03-21T12:04:45;15.50;61.90
12833;DHT22;6483;51.310;4.462;2023-03-21T12:10:31;15.50;59.40
12833;DHT22;6483;51.310;4.462;2023-03-21T12:21:19;14.90;56.30
12833;DHT22;6483;51.310;4.462;2023-03-21T12:26:52;14.70;75.00
12833;DHT22;6483;51.310;4.462;2023-03-21T12:29:22;14.60;84.80
12833;DHT22;6483;51.310;4.462;2023-03-21T12:31:57;14.20;86.90
12833;DHT22;6483;51.310;4.462;2023-03-21T12:43:00;13.90;99.00
12833;DHT22;6483;51.310;4.462;2023-03-21T12:45:35;14.00;99.70
12833;DHT22;6483;51.310;4.462;2023-03-21T12:48:29;14.00;99.90
12833;DHT22;6483;51.310;4.462;2023-03-21T12:51:00;14.30;99.20
12833;DHT22;6483;51.310;4.462;2023-03-21T12:53:49;14.40;99.90
12833;DHT22;6483;51.310;4.462;2023-03-21T12:56:21;14.60;97.20
12833;DHT22;6483;51.310;4.462;2023-03-21T12:58:58;15.10;96.80
12833;DHT22;6483;51.310;4.462;2023-03-21T13:01:27;15.10;86.20
12833;DHT22;6483;51.310;4.462;2023-03-21T13:04:19;14.60;91.60
12833;DHT22;6483;51.310;4.462;2023-03-21T13:06:47;14.70;94.20
12833;DHT22;6483;51.310;4.462;2023-03-21T13:09:39;14.60;94.00
12833;DHT22;6483;51.310;4.462;2023-03-21T13:14:44;14.50;97.20
12833;DHT22;6483;51.310;4.462;2023-03-21T13:17:25;14.50;98.60
12833;DHT22;6483;51.310;4.462;2023-03-21T13:20:03;14.40;99.10
12833;DHT22;6483;51.310;4.462;2023-03-21T13:22:31;14.50;99.90
12833;DHT22;6483;51.310;4.462;2023-03-21T13:25:14;14.40;99.20
12833;DHT22;6483;51.310;4.462;2023-03-21T13:27:41;14.40;99.90
12833;DHT22;6483;51.310;4.462;2023-03-21T13:30:21;14.40;99.90
12833;DHT22;6483;51.310;4.462;2023-03-21T13:32:49;14.40;99.90
12833;DHT22;6483;51.310;4.462;2023-03-21T13:35:33;14.40;99.90
12833;DHT22;6483;51.310;4.462;2023-03-21T13:38:09;14.20;99.90
12833;DHT22;6483;51.310;4.462;2023-03-21T13:43:40;13.90;99.90
12833;DHT22;6483;51.310;4.462;2023-03-21T13:54:16;13.80;99.90
12833;DHT22;6483;51.310;4.462;2023-03-21T14:02:02;14.10;99.90
12833;DHT22;6483;51.310;4.462;2023-03-21T14:04:30;14.00;99.90
12833;DHT22;6483;51.310;4.462;2023-03-21T14:07:04;14.10;99.90
12833;DHT22;6483;51.310;4.462;2023-03-21T14:09:43;13.90;99.90
12833;DHT22;6483;51.310;4.462;2023-03-21T14:12:15;13.80;99.90
12833;DHT22;6483;51.310;4.462;2023-03-21T14:14:45;13.90;99.90
12833;DHT22;6483;51.310;4.462;2023-03-21T14:17:22;13.80;99.90
12833;DHT22;6483;51.310;4.462;2023-03-21T14:19:53;13.80;99.90
12833;DHT22;6483;51.310;4.462;2023-03-21T14:22:20;13.80;99.90
12833;DHT22;6483;51.310;4.462;2023-03-21T14:24:48;13.70;99.90
12833;DHT22;6483;51.310;4.462;2023-03-21T14:27:14;13.70;99.90
12833;DHT22;6483;51.310;4.462;2023-03-21T14:29:40;13.60;99.90
12833;DHT22;6483;51.310;4.462;2023-03-21T14:32:13;13.60;99.90
12833;DHT22;6483;51.310;4.462;2023-03-21T14:34:43;13.60;99.90
12833;DHT22;6483;51.310;4.462;2023-03-21T14:37:11;13.50;99.90
12833;DHT22;6483;51.310;4.462;2023-03-21T14:39:36;13.50;99.90
12833;DHT22;6483;51.310;4.462;2023-03-21T14:42:05;13.50;99.90
12833;DHT22;6483;51.310;4.462;2023-03-21T14:44:37;13.50;99.90
12833;DHT22;6483;51.310;4.462;2023-03-21T14:47:05;13.40;99.90
12833;DHT22;6483;51.310;4.462;2023-03-21T14:49:36;13.40;99.90
12833;DHT22;6483;51.310;4.462;2023-03-21T14:52:10;13.50;99.90
12833;DHT22;6483;51.310;4.462;2023-03-21T14:54:43;13.40;99.90
12833;DHT22;6483;51.310;4.462;2023-03-21T14:57:12;13.40;99.90
12833;DHT22;6483;51.310;4.462;2023-03-21T14:59:39;13.30;99.90
12833;DHT22;6483;51.310;4.462;2023-03-21T15:02:25;13.20;99.90
12833;DHT22;6483;51.310;4.462;2023-03-21T15:04:53;13.20;99.90
12833;DHT22;6483;51.310;4.462;2023-03-21T15:07:29;13.10;99.90
12833;DHT22;6483;51.310;4.462;2023-03-21T15:09:58;13.00;99.90
12833;DHT22;6483;51.310;4.462;2023-03-21T15:12:26;12.90;99.90
12833;DHT22;6483;51.310;4.462;2023-03-21T15:14:52;12.80;99.90
12833;DHT22;6483;51.310;4.462;2023-03-21T15:17:19;12.80;99.90
12833;DHT22;6483;51.310;4.462;2023-03-21T15:19:45;12.80;99.90
12833;DHT22;6483;51.310;4.462;2023-03-21T15:22:31;12.80;99.90
12833;DHT22;6483;51.310;4.462;2023-03-21T15:25:07;12.70;99.90
12833;DHT22;6483;51.310;4.462;2023-03-21T15:27:38;12.60;99.90
12833;DHT22;6483;51.310;4.462;2023-03-21T15:30:06;12.60;99.90
12833;DHT22;6483;51.310;4.462;2023-03-21T15:32:35;12.50;99.90
12833;DHT22;6483;51.310;4.462;2023-03-21T15:35:07;12.50;99.90
12833;DHT22;6483;51.310;4.462;2023-03-21T15:37:37;12.50;99.90
12833;DHT22;6483;51.310;4.462;2023-03-21T15:40:26;12.50;99.90
12833;DHT22;6483;51.310;4.462;2023-03-21T15:43:13;12.50;99.90
12833;DHT22;6483;51.310;4.462;2023-03-21T15:46:12;12.50;99.90
12833;DHT22;6483;51.310;4.462;2023-03-21T15:48:37;12.50;99.90
12833;DHT22;6483;51.310;4.462;2023-03-21T15:51:05;12.40;99.90
12833;DHT22;6483;51.310;4.462;2023-03-21T15:53:36;12.40;99.90
12833;DHT22;6483;51.310;4.462;2023-03-21T15:56:04;12.40;99.90
12833;DHT22;6483;51.310;4.462;2023-03-21T15:58:40;12.50;99.90
12833;DHT22;6483;51.310;4.462;2023-03-21T16:01:22;12.60;99.90
12833;DHT22;6483;51.310;4.462;2023-03-21T16:04:01;12.60;99.90
12833;DHT22;6483;51.310;4.462;2023-03-21T16:06:33;12.60;99.90
12833;DHT22;6483;51.310;4.462;2023-03-21T16:09:26;12.60;99.90
12833;DHT22;6483;51.310;4.462;2023-03-21T16:11:54;12.60;99.90
12833;DHT22;6483;51.310;4.462;2023-03-21T16:14:21;12.60;99.90
12833;DHT22;6483;51.310;4.462;2023-03-21T16:16:48;12.60;99.90
12833;DHT22;6483;51.310;4.462;2023-03-21T16:19:15;12.60;99.90
12833;DHT22;6483;51.310;4.462;2023-03-21T16:21:41;12.60;99.90
12833;DHT22;6483;51.310;4.462;2023-03-21T16:24:07;12.70;99.90
12833;DHT22;6483;51.310;4.462;2023-03-21T16:26:41;12.70;99.90
12833;DHT22;6483;51.310;4.462;2023-03-21T16:29:12;12.80;99.90
12833;DHT22;6483;51.310;4.462;2023-03-21T16:31:37;12.70;99.90
12833;DHT22;6483;51.310;4.462;2023-03-21T16:34:03;12.80;99.90
12833;DHT22;6483;51.310;4.462;2023-03-21T16:36:35;12.80;99.90
12833;DHT22;6483;51.310;4.462;2023-03-21T16:39:04;12.80;99.90
12833;DHT22;6483;51.310;4.462;2023-03-21T16:41:31;12.90;99.90
12833;DHT22;6483;51.310;4.462;2023-03-21T16:43:57;13.10;99.90
12833;DHT22;6483;51.310;4.462;2023-03-21T16:46:25;13.10;99.90
12833;DHT22;6483;51.310;4.462;2023-03-21T16:48:55;13.10;99.90
12833;DHT22;6483;51.310;4.462;2023-03-21T16:51:33;13.00;99.90
12833;DHT22;6483;51.310;4.462;2023-03-21T16:54:00;13.00;99.90
12833;DHT22;6483;51.310;4.462;2023-03-21T16:56:58;13.00;99.90
12833;DHT22;6483;51.310;4.462;2023-03-21T16:59:24;13.10;99.90
12833;DHT22;6483;51.310;4.462;2023-03-21T17:01:50;13.00;99.90
12833;DHT22;6483;51.310;4.462;2023-03-21T17:04:17;13.00;99.90
12833;DHT22;6483;51.310;4.462;2023-03-21T17:06:48;13.00;99.90
12833;DHT22;6483;51.310;4.462;2023-03-21T17:09:16;13.00;99.90
12833;DHT22;6483;51.310;4.462;2023-03-21T17:11:42;13.00;99.90
12833;DHT22;6483;51.310;4.462;2023-03-21T17:14:09;13.10;99.90
12833;DHT22;6483;51.310;4.462;2023-03-21T17:16:36;13.00;99.90
12833;DHT22;6483;51.310;4.462;2023-03-21T17:19:13;13.10;99.90
12833;DHT22;6483;51.310;4.462;2023-03-21T17:21:39;13.10;99.90
12833;DHT22;6483;51.310;4.462;2023-03-21T17:24:05;13.10;99.90
12833;DHT22;6483;51.310;4.462;2023-03-21T17:26:31;13.10;99.90
12833;DHT22;6483;51.310;4.462;2023-03-21T17:28:56;13.00;99.90
12833;DHT22;6483;51.310;4.462;2023-03-21T17:31:24;13.10;99.90
12833;DHT22;6483;51.310;4.462;2023-03-21T17:33:50;13.00;99.90
12833;DHT22;6483;51.310;4.462;2023-03-21T17:36:19;13.00;99.90
12833;DHT22;6483;51.310;4.462;2023-03-21T17:38:46;13.00;99.90
12833;DHT22;6483;51.310;4.462;2023-03-21T17:41:15;12.90;99.90
12833;DHT22;6483;51.310;4.462;2023-03-21T17:43:47;13.00;99.90
12833;DHT22;6483;51.310;4.462;2023-03-21T17:46:19;13.00;99.90
12833;DHT22;6483;51.310;4.462;2023-03-21T17:48:47;13.00;99.90
12833;DHT22;6483;51.310;4.462;2023-03-21T17:51:13;13.00;99.90